Time;durP1;ratioP1;P1;durP2;ratioP2;P2;SDS_P1;SDS_P2;PMS_P1;PMS_P2;Temp;Humidity;BMP_temperature;BMP_pressure;BME280_temperature;BME280_humidity;BME280_pressure;Samples;Min_cycle;Max_cycle;Signal;HPM_P1;HPM_P2
2022/11/13 00:00:53;;;;;;;22.47;17.23;;;11.80;99.90;;;;;;5097026;28;20450;-67
2022/11/13 00:03:20;;;;;;;25.13;17.87;;;11.80;99.90;;;;;;5096501;28;20453;-67
2022/11/13 00:05:47;;;;;;;24.00;17.27;;;11.80;99.90;;;;;;5095436;28;20511;-67
2022/11/13 00:08:14;;;;;;;21.93;16.37;;;11.80;99.90;;;;;;5095127;28;20540;-67
2022/11/13 00:10:41;;;;;;;20.50;16.63;;;11.80;99.90;;;;;;5094995;28;20457;-66
2022/11/13 00:13:08;;;;;;;25.10;17.30;;;11.80;99.90;;;;;;5094872;28;20556;-66
2022/11/13 00:15:36;;;;;;;24.20;17.43;;;11.80;99.90;;;;;;5095122;28;20552;-66
2022/11/13 00:18:03;;;;;;;18.10;15.57;;;11.90;99.90;;;;;;5095141;28;20457;-67
2022/11/13 00:20:30;;;;;;;21.20;15.57;;;11.90;99.90;;;;;;5095202;28;20518;-66
2022/11/13 00:22:57;;;;;;;19.73;14.90;;;11.90;99.90;;;;;;5095033;28;20450;-66
2022/11/13 00:25:24;;;;;;;17.90;15.67;;;11.90;99.90;;;;;;5094617;28;20860;-66
2022/11/13 00:27:51;;;;;;;21.70;16.20;;;11.90;99.90;;;;;;5094748;28;20542;-66
2022/11/13 00:30:18;;;;;;;20.30;14.67;;;11.90;99.90;;;;;;5095207;28;20846;-67
2022/11/13 00:32:46;;;;;;;17.97;14.47;;;11.90;99.90;;;;;;5094868;28;20534;-65
2022/11/13 00:35:13;;;;;;;17.00;13.70;;;11.90;99.90;;;;;;5095031;28;20529;-66
2022/11/13 00:37:40;;;;;;;18.60;13.70;;;11.90;99.90;;;;;;5095149;28;20458;-66
2022/11/13 00:40:08;;;;;;;19.67;14.60;;;11.90;99.90;;;;;;5095465;28;20454;-67
2022/11/13 00:42:35;;;;;;;17.30;14.37;;;11.80;99.90;;;;;;5095102;28;20458;-67
2022/11/13 00:45:02;;;;;;;16.87;13.67;;;11.80;99.90;;;;;;5094389;28;20473;-66
2022/11/13 00:47:29;;;;;;;19.30;13.43;;;11.70;99.90;;;;;;5094842;28;20492;-67
2022/11/13 00:49:57;;;;;;;17.60;13.60;;;11.70;99.90;;;;;;5094935;28;20453;-67
2022/11/13 00:52:24;;;;;;;18.03;14.30;;;11.70;99.90;;;;;;5094724;28;20948;-66
2022/11/13 00:54:51;;;;;;;19.40;14.77;;;11.80;99.90;;;;;;5098469;28;20453;-66
2022/11/13 00:57:18;;;;;;;14.80;13.20;;;11.80;99.90;;;;;;5098544;28;20919;-66
2022/11/13 00:59:44;;;;;;;20.80;14.73;;;11.70;99.90;;;;;;5098465;28;20456;-66
2022/11/13 01:02:14;;;;;;;17.30;13.47;;;11.70;99.90;;;;;;5098461;28;20510;-66
2022/11/13 01:04:41;;;;;;;16.50;13.43;;;11.70;99.90;;;;;;5098369;28;20453;-66
2022/11/13 01:07:09;;;;;;;15.53;12.40;;;11.70;99.90;;;;;;5098587;28;20582;-66
2022/11/13 01:09:36;;;;;;;16.00;12.50;;;11.70;99.90;;;;;;5099130;28;20917;-66
2022/11/13 01:12:03;;;;;;;16.73;13.07;;;11.70;99.90;;;;;;5098073;28;20461;-66
2022/11/13 01:14:30;;;;;;;16.70;12.67;;;11.80;99.90;;;;;;5098142;28;20567;-67
2022/11/13 01:16:57;;;;;;;18.03;13.30;;;11.80;99.90;;;;;;5098493;28;20532;-65
2022/11/13 01:19:24;;;;;;;16.90;13.87;;;11.80;99.90;;;;;;5098029;28;20982;-66
2022/11/13 01:21:50;;;;;;;20.23;13.47;;;11.80;99.90;;;;;;5098061;28;20457;-66
2022/11/13 01:24:19;;;;;;;16.37;13.37;;;11.80;99.90;;;;;;5098302;28;20450;-67
2022/11/13 01:26:46;;;;;;;17.80;12.87;;;11.80;99.90;;;;;;5097865;28;20481;-66
2022/11/13 01:29:13;;;;;;;19.80;13.63;;;11.90;99.90;;;;;;5098170;28;20809;-66
2022/11/13 01:31:39;;;;;;;18.67;12.33;;;11.90;99.90;;;;;;5097788;28;20461;-66
2022/11/13 01:34:07;;;;;;;17.80;13.37;;;11.90;99.90;;;;;;5097840;28;20597;-66
2022/11/13 01:36:34;;;;;;;15.03;12.10;;;11.90;99.90;;;;;;5097813;28;20533;-66
2022/11/13 01:39:00;;;;;;;19.00;11.93;;;11.80;99.90;;;;;;5097885;28;20496;-65
2022/11/13 01:41:31;;;;;;;14.77;13.20;;;11.80;99.90;;;;;;5097912;28;20965;-66
2022/11/13 01:43:59;;;;;;;16.87;12.40;;;11.80;99.90;;;;;;5097885;28;20463;-67
2022/11/13 01:46:28;;;;;;;18.20;12.60;;;11.90;99.90;;;;;;5097732;28;20598;-66
2022/11/13 01:49:01;;;;;;;16.47;12.80;;;11.80;99.90;;;;;;5097386;28;20545;-66
2022/11/13 01:51:33;;;;;;;17.00;13.37;;;11.80;99.90;;;;;;5097379;28;20582;-67
2022/11/13 01:54:02;;;;;;;16.00;12.40;;;11.80;99.90;;;;;;5097505;28;20462;-66
2022/11/13 01:56:30;;;;;;;14.73;12.00;;;11.80;99.90;;;;;;5098042;28;20485;-66
2022/11/13 01:59:04;;;;;;;17.03;13.50;;;11.80;99.90;;;;;;5098190;28;20504;-65
2022/11/13 02:01:31;;;;;;;15.60;12.70;;;11.80;99.90;;;;;;5098298;28;20741;-66
2022/11/13 02:03:58;;;;;;;20.73;13.77;;;11.80;99.90;;;;;;5097888;28;20493;-67
2022/11/13 02:06:28;;;;;;;18.37;13.93;;;11.80;99.90;;;;;;5097725;28;20485;-66
2022/11/13 02:08:55;;;;;;;16.13;13.10;;;11.70;99.90;;;;;;5097671;28;20453;-67
2022/11/13 02:11:22;;;;;;;15.87;13.10;;;11.80;99.90;;;;;;5097389;28;20453;-67
2022/11/13 02:13:51;;;;;;;14.63;12.20;;;11.80;99.90;;;;;;5097083;28;20588;-68
2022/11/13 02:16:18;;;;;;;15.20;13.00;;;11.80;99.90;;;;;;5096791;28;20457;-66
2022/11/13 02:18:46;;;;;;;19.00;14.27;;;11.80;99.90;;;;;;5096821;28;20550;-67
2022/11/13 02:21:25;;;;;;;16.97;13.30;;;11.80;99.90;;;;;;5096804;28;20990;-67
2022/11/13 02:24:00;;;;;;;19.07;14.67;;;11.90;99.90;;;;;;5097101;28;20437;-67
2022/11/13 02:26:30;;;;;;;16.50;14.27;;;11.90;99.90;;;;;;5096560;28;20508;-66
2022/11/13 02:28:57;;;;;;;17.30;14.77;;;11.90;99.90;;;;;;5096618;28;20473;-68
2022/11/13 02:31:24;;;;;;;21.93;15.00;;;11.90;99.90;;;;;;5097468;28;20453;-67
2022/11/13 02:33:51;;;;;;;17.07;13.90;;;11.90;99.90;;;;;;5096492;28;20567;-67
2022/11/13 02:36:21;;;;;;;18.73;14.80;;;11.90;99.90;;;;;;5096476;28;20457;-66
2022/11/13 02:38:49;;;;;;;17.97;15.27;;;11.90;99.90;;;;;;5096674;28;20489;-66
2022/11/13 02:41:16;;;;;;;22.60;16.17;;;11.90;99.90;;;;;;5096392;28;20943;-66
2022/11/13 02:43:44;;;;;;;18.67;15.77;;;11.90;99.90;;;;;;5096391;28;20477;-66
2022/11/13 02:46:11;;;;;;;18.60;15.63;;;11.90;99.90;;;;;;5096363;28;20965;-66
2022/11/13 02:48:38;;;;;;;16.60;14.83;;;11.90;99.90;;;;;;5096353;28;20457;-66
2022/11/13 02:51:05;;;;;;;19.10;16.13;;;11.90;99.90;;;;;;5096642;28;20465;-66
2022/11/13 02:53:32;;;;;;;19.77;17.10;;;11.90;99.90;;;;;;5096243;28;21028;-66
2022/11/13 02:55:59;;;;;;;19.20;16.20;;;11.90;99.90;;;;;;5096732;28;20515;-66
2022/11/13 02:58:26;;;;;;;22.10;17.20;;;11.90;99.90;;;;;;5096629;28;20812;-66
2022/11/13 03:00:54;;;;;;;19.93;17.30;;;11.90;99.90;;;;;;5096521;28;20489;-66
2022/11/13 03:03:21;;;;;;;19.37;16.73;;;11.90;99.90;;;;;;5096543;28;20506;-66
2022/11/13 03:05:49;;;;;;;21.10;17.50;;;11.90;99.90;;;;;;5096150;28;20970;-66
2022/11/13 03:08:16;;;;;;;20.53;16.53;;;11.90;99.90;;;;;;5096383;28;20485;-66
2022/11/13 03:10:43;;;;;;;20.00;16.20;;;11.90;99.90;;;;;;5096097;28;20518;-66
2022/11/13 03:13:10;;;;;;;20.17;17.33;;;11.90;99.90;;;;;;5097050;28;20853;-65
2022/11/13 03:15:37;;;;;;;26.07;17.57;;;11.90;99.90;;;;;;5097896;28;20547;-67
2022/11/13 03:18:06;;;;;;;20.77;16.43;;;11.90;99.90;;;;;;5095825;28;20933;-67
2022/11/13 03:20:35;;;;;;;22.33;17.80;;;11.90;99.90;;;;;;5095958;28;20485;-67
2022/11/13 03:23:02;;;;;;;21.37;16.53;;;11.90;99.90;;;;;;5097656;28;20465;-65
2022/11/13 03:25:29;;;;;;;20.10;15.83;;;11.80;99.90;;;;;;5096096;28;21047;-67
2022/11/13 03:27:56;;;;;;;18.70;16.70;;;11.70;99.90;;;;;;5095942;28;20483;-65
2022/11/13 03:30:23;;;;;;;20.03;16.03;;;11.70;99.90;;;;;;5095797;28;20576;-68
2022/11/13 03:32:53;;;;;;;22.90;16.80;;;11.80;99.90;;;;;;5095494;28;20547;-67
2022/11/13 03:35:22;;;;;;;19.93;16.87;;;11.80;99.90;;;;;;5095843;28;20461;-66
2022/11/13 03:37:49;;;;;;;21.60;16.20;;;11.80;99.90;;;;;;5096026;28;20453;-66
2022/11/13 03:40:16;;;;;;;17.60;14.83;;;11.80;99.90;;;;;;5095686;28;20552;-66
2022/11/13 03:42:43;;;;;;;19.73;16.20;;;11.80;99.90;;;;;;5095721;28;20540;-66
2022/11/13 03:45:10;;;;;;;18.67;14.33;;;11.80;99.90;;;;;;5095758;28;20532;-66
2022/11/13 03:47:37;;;;;;;22.40;16.00;;;11.80;99.90;;;;;;5095446;28;20943;-66
2022/11/13 03:50:04;;;;;;;17.40;14.50;;;11.80;99.90;;;;;;5095818;28;20496;-67
2022/11/13 03:52:33;;;;;;;22.43;14.27;;;11.90;99.90;;;;;;5095529;28;20844;-67
2022/11/13 03:54:59;;;;;;;17.03;13.20;;;11.90;99.90;;;;;;5095522;28;20554;-67
2022/11/13 03:57:26;;;;;;;15.67;12.73;;;11.90;99.90;;;;;;5095486;28;20457;-67
2022/11/13 03:59:53;;;;;;;14.60;12.63;;;11.90;99.90;;;;;;5095908;28;20910;-67
2022/11/13 04:02:20;;;;;;;13.30;11.87;;;11.90;99.90;;;;;;5095848;28;20461;-68
2022/11/13 04:04:47;;;;;;;15.50;12.20;;;11.90;99.90;;;;;;5095250;28;20849;-65
2022/11/13 04:07:14;;;;;;;12.93;11.70;;;11.90;99.90;;;;;;5095284;28;20540;-67
2022/11/13 04:09:42;;;;;;;18.90;13.47;;;11.90;99.90;;;;;;5095396;28;20457;-66
2022/11/13 04:12:09;;;;;;;14.80;11.80;;;11.90;99.90;;;;;;5094962;28;20518;-66
2022/11/13 04:14:36;;;;;;;16.23;11.97;;;11.90;99.90;;;;;;5094788;28;20473;-66
2022/11/13 04:17:03;;;;;;;18.80;13.63;;;11.90;99.90;;;;;;5094701;28;20555;-67
2022/11/13 04:19:30;;;;;;;15.70;13.40;;;11.90;99.90;;;;;;5094849;28;21012;-66
2022/11/13 04:21:57;;;;;;;12.27;11.00;;;11.90;99.90;;;;;;5094902;28;20548;-67
2022/11/13 04:24:24;;;;;;;12.60;11.30;;;11.90;99.90;;;;;;5094485;28;20541;-65
2022/11/13 04:26:52;;;;;;;13.20;11.03;;;11.90;99.90;;;;;;5094954;28;20576;-67
2022/11/13 04:29:19;;;;;;;11.77;10.57;;;11.90;99.90;;;;;;5094339;28;20544;-66
2022/11/13 04:31:46;;;;;;;12.37;11.13;;;11.90;99.90;;;;;;5094468;28;20905;-67
2022/11/13 04:34:13;;;;;;;12.33;11.13;;;11.90;99.90;;;;;;5094773;28;20509;-65
2022/11/13 04:36:40;;;;;;;12.40;10.90;;;11.80;99.90;;;;;;5094621;28;20851;-66
2022/11/13 04:39:07;;;;;;;13.77;10.90;;;11.80;99.90;;;;;;5094600;28;20453;-66
2022/11/13 04:44:19;;;;;;;13.80;10.90;;;11.80;99.90;;;;;;5094508;28;20436;-66
2022/11/13 04:46:46;;;;;;;12.53;11.07;;;11.80;99.90;;;;;;5094637;28;20544;-65
2022/11/13 04:49:13;;;;;;;12.90;10.53;;;11.80;99.90;;;;;;5094507;28;20457;-66
2022/11/13 04:51:40;;;;;;;12.73;10.23;;;11.80;99.90;;;;;;5094448;28;20936;-66
2022/11/13 04:54:07;;;;;;;16.03;12.10;;;11.80;99.90;;;;;;5094606;28;20520;-66
2022/11/13 04:56:34;;;;;;;13.60;11.60;;;11.70;99.90;;;;;;5095172;28;20457;-66
2022/11/13 04:59:01;;;;;;;13.50;12.10;;;11.70;99.90;;;;;;5094151;28;20970;-66
2022/11/13 05:01:29;;;;;;;15.73;12.83;;;11.70;99.90;;;;;;5094092;28;20503;-67
2022/11/13 05:03:56;;;;;;;11.87;10.60;;;11.70;99.90;;;;;;5094285;28;20453;-66
2022/11/13 05:06:23;;;;;;;14.83;12.00;;;11.70;99.90;;;;;;5094239;28;20546;-67
2022/11/13 05:08:50;;;;;;;12.20;10.90;;;11.70;99.90;;;;;;5094305;28;20567;-67
2022/11/13 05:11:17;;;;;;;13.50;11.97;;;11.70;99.90;;;;;;5094366;28;20536;-67
2022/11/13 05:13:44;;;;;;;14.33;11.67;;;11.70;99.90;;;;;;5093977;28;20495;-65
2022/11/13 05:16:13;;;;;;;16.30;12.77;;;11.70;99.90;;;;;;5094207;28;20589;-65
2022/11/13 05:18:41;;;;;;;14.73;13.03;;;11.70;99.90;;;;;;5094189;28;20576;-68
2022/11/13 05:21:09;;;;;;;14.63;13.13;;;11.80;99.90;;;;;;5095133;28;20457;-67
2022/11/13 05:23:36;;;;;;;15.80;12.97;;;11.70;99.90;;;;;;5094124;28;20499;-67
2022/11/13 05:26:04;;;;;;;14.47;12.97;;;11.70;99.90;;;;;;5093846;28;20481;-67
2022/11/13 05:28:31;;;;;;;15.90;12.70;;;11.70;99.90;;;;;;5094539;28;20702;-66
2022/11/13 05:31:06;;;;;;;14.77;12.50;;;11.70;99.90;;;;;;5093921;28;20466;-68
2022/11/13 05:33:33;;;;;;;17.70;13.50;;;11.60;99.90;;;;;;5094086;28;20536;-67
2022/11/13 05:36:07;;;;;;;16.40;14.37;;;11.60;99.90;;;;;;5094130;28;20457;-67
2022/11/13 05:38:34;;;;;;;17.10;13.83;;;11.60;99.90;;;;;;5093831;28;20520;-68
2022/11/13 05:41:02;;;;;;;17.27;14.50;;;11.60;99.90;;;;;;5096328;28;20792;-66
2022/11/13 05:43:29;;;;;;;18.63;15.47;;;11.50;99.90;;;;;;5098133;28;20899;-67
2022/11/13 05:46:01;;;;;;;19.20;15.83;;;11.60;99.90;;;;;;5097982;28;20487;-66
2022/11/13 05:48:28;;;;;;;18.17;15.70;;;11.60;99.90;;;;;;5097510;28;20457;-67
2022/11/13 05:51:00;;;;;;;19.07;17.07;;;11.60;99.90;;;;;;5097687;28;20536;-69
2022/11/13 05:53:29;;;;;;;21.10;15.90;;;11.60;99.90;;;;;;5098295;28;20580;-67
2022/11/13 05:56:00;;;;;;;19.23;17.03;;;11.50;99.90;;;;;;5097549;28;20585;-67
2022/11/13 05:58:27;;;;;;;20.30;17.63;;;11.60;99.90;;;;;;5097093;28;20499;-67
2022/11/13 06:01:04;;;;;;;22.30;17.50;;;11.60;99.90;;;;;;5097931;28;20484;-67
2022/11/13 06:03:31;;;;;;;20.00;16.87;;;11.60;99.90;;;;;;5097556;28;20463;-66
2022/11/13 06:05:58;;;;;;;20.30;16.97;;;11.60;99.90;;;;;;5097508;28;20518;-66
2022/11/13 06:08:25;;;;;;;20.50;17.50;;;11.60;99.90;;;;;;5097228;28;20925;-67
2022/11/13 06:10:59;;;;;;;24.60;19.63;;;11.60;99.90;;;;;;5097383;28;20468;-67
2022/11/13 06:13:26;;;;;;;20.73;18.17;;;11.60;99.90;;;;;;5097149;28;20489;-66
2022/11/13 06:15:53;;;;;;;22.90;18.37;;;11.60;99.90;;;;;;5097266;28;20534;-67
2022/11/13 06:18:22;;;;;;;24.33;18.47;;;11.60;99.90;;;;;;5096944;28;21140;-67
2022/11/13 06:20:49;;;;;;;20.57;17.23;;;11.60;99.90;;;;;;5097636;28;20514;-66
2022/11/13 06:23:16;;;;;;;18.03;16.10;;;11.70;99.90;;;;;;5097356;28;20508;-67
2022/11/13 06:25:43;;;;;;;19.30;15.30;;;11.70;99.90;;;;;;5097123;28;20993;-66
2022/11/13 06:28:11;;;;;;;20.73;16.20;;;11.70;99.90;;;;;;5097703;28;20827;-66
2022/11/13 06:30:38;;;;;;;20.43;15.30;;;11.70;99.90;;;;;;5097030;28;20457;-65
2022/11/13 06:33:05;;;;;;;17.57;15.27;;;11.70;99.90;;;;;;5097221;28;20458;-67
2022/11/13 06:35:32;;;;;;;16.77;13.50;;;11.70;99.90;;;;;;5097249;28;20580;-65
2022/11/13 06:37:59;;;;;;;15.30;12.93;;;11.70;99.90;;;;;;5097134;28;20804;-65
2022/11/13 06:40:26;;;;;;;17.80;13.30;;;11.70;99.90;;;;;;5097095;28;20530;-66
2022/11/13 06:42:53;;;;;;;15.20;13.53;;;11.80;99.90;;;;;;5096955;28;20457;-66
2022/11/13 06:45:21;;;;;;;14.03;11.80;;;11.70;99.90;;;;;;5096773;28;20453;-66
2022/11/13 06:47:48;;;;;;;16.87;13.33;;;11.70;99.90;;;;;;5096890;28;20514;-66
2022/11/13 06:50:15;;;;;;;18.00;13.10;;;11.60;99.90;;;;;;5096606;28;20493;-66
2022/11/13 06:52:42;;;;;;;17.40;14.27;;;11.70;99.90;;;;;;5098692;28;20549;-67
2022/11/13 06:55:09;;;;;;;19.40;14.00;;;11.70;99.90;;;;;;5099216;28;20509;-67
2022/11/13 06:57:36;;;;;;;19.47;15.13;;;11.60;99.90;;;;;;5098622;28;20461;-66
2022/11/13 07:00:03;;;;;;;17.20;15.17;;;11.70;99.90;;;;;;5096737;28;20847;-66
2022/11/13 07:02:31;;;;;;;20.43;15.73;;;11.70;99.90;;;;;;5096546;28;20483;-67
2022/11/13 07:04:58;;;;;;;20.10;16.70;;;11.70;99.90;;;;;;5096105;28;20454;-67
2022/11/13 07:07:25;;;;;;;21.70;15.33;;;11.70;99.90;;;;;;5096308;28;20844;-67
2022/11/13 07:09:52;;;;;;;21.03;15.33;;;11.80;99.90;;;;;;5096067;28;20479;-67
2022/11/13 07:12:19;;;;;;;18.90;14.97;;;11.70;99.90;;;;;;5096428;28;20465;-67
2022/11/13 07:14:46;;;;;;;16.53;14.30;;;11.80;99.90;;;;;;5096218;28;20477;-67
2022/11/13 07:17:13;;;;;;;20.40;16.30;;;11.80;99.90;;;;;;5096490;28;20468;-67
2022/11/13 07:19:41;;;;;;;20.93;16.30;;;11.80;99.90;;;;;;5096005;28;20453;-67
2022/11/13 07:22:08;;;;;;;21.77;17.13;;;11.80;99.90;;;;;;5095909;28;20904;-67
2022/11/13 07:24:35;;;;;;;21.23;16.03;;;11.80;99.90;;;;;;5095530;28;20453;-66
2022/11/13 07:27:02;;;;;;;18.17;15.97;;;11.80;99.90;;;;;;5095685;28;20886;-67
2022/11/13 07:29:29;;;;;;;20.87;17.33;;;11.80;99.90;;;;;;5095484;28;20457;-68
2022/11/13 07:31:56;;;;;;;22.37;16.87;;;11.80;99.90;;;;;;5095777;28;20453;-66
2022/11/13 07:34:23;;;;;;;21.77;17.83;;;11.80;99.90;;;;;;5095836;28;20465;-67
2022/11/13 07:36:51;;;;;;;23.07;17.67;;;11.80;99.90;;;;;;5095662;28;20544;-66
2022/11/13 07:39:18;;;;;;;23.77;17.80;;;11.90;99.90;;;;;;5095745;28;20449;-67
2022/11/13 07:41:46;;;;;;;21.60;17.27;;;11.80;99.90;;;;;;5095887;28;20636;-66
2022/11/13 07:44:13;;;;;;;20.67;16.53;;;11.90;99.90;;;;;;5095812;28;20828;-66
2022/11/13 07:46:40;;;;;;;25.90;19.20;;;11.90;99.90;;;;;;5095707;28;20457;-66
2022/11/13 07:49:07;;;;;;;20.10;17.50;;;11.90;99.90;;;;;;5096309;28;20453;-66
2022/11/13 07:51:34;;;;;;;21.30;17.03;;;11.90;99.90;;;;;;5095989;28;20487;-66
2022/11/13 07:54:02;;;;;;;23.40;17.70;;;11.90;99.90;;;;;;5095965;28;20481;-67
2022/11/13 07:56:29;;;;;;;23.07;18.43;;;11.80;99.90;;;;;;5095523;28;20542;-67
2022/11/13 07:58:56;;;;;;;23.83;17.53;;;11.90;99.90;;;;;;5096213;28;20489;-67
2022/11/13 08:01:23;;;;;;;25.20;18.27;;;11.80;99.90;;;;;;5096811;28;20786;-67
2022/11/13 08:03:50;;;;;;;24.47;18.20;;;11.80;99.90;;;;;;5095186;28;20761;-68
2022/11/13 08:06:17;;;;;;;22.83;17.27;;;11.90;99.90;;;;;;5095631;28;20548;-67
2022/11/13 08:08:47;;;;;;;26.17;17.60;;;11.90;99.90;;;;;;5095628;28;20824;-67
2022/11/13 08:11:16;;;;;;;21.60;17.00;;;11.90;99.90;;;;;;5095275;28;20511;-68
2022/11/13 08:13:42;;;;;;;21.93;17.57;;;12.00;99.90;;;;;;5095313;28;20514;-66
2022/11/13 08:16:09;;;;;;;26.43;20.17;;;12.00;99.90;;;;;;5094707;28;21026;-67
2022/11/13 08:18:36;;;;;;;22.33;17.27;;;12.00;99.90;;;;;;5095140;28;20458;-67
2022/11/13 08:21:05;;;;;;;28.23;19.77;;;12.00;99.90;;;;;;5095193;28;20841;-67
2022/11/13 08:23:32;;;;;;;24.83;19.80;;;12.10;99.90;;;;;;5095056;28;20540;-67
2022/11/13 08:26:04;;;;;;;22.60;18.30;;;12.10;99.90;;;;;;5094520;28;20485;-67
2022/11/13 08:28:33;;;;;;;21.13;16.70;;;12.10;99.90;;;;;;5094912;28;20478;-67
2022/11/13 08:31:00;;;;;;;19.40;15.33;;;12.20;99.90;;;;;;5095083;28;20504;-67
2022/11/13 08:33:27;;;;;;;20.57;16.63;;;12.20;99.90;;;;;;5095427;28;20457;-66
2022/11/13 08:35:54;;;;;;;24.00;16.70;;;12.20;99.90;;;;;;5094864;28;20503;-67
2022/11/13 08:38:22;;;;;;;24.13;17.20;;;12.30;99.90;;;;;;5094724;28;20461;-66
2022/11/13 08:40:49;;;;;;;20.10;16.33;;;12.30;99.90;;;;;;5094485;28;20917;-66
2022/11/13 08:43:16;;;;;;;24.20;17.50;;;12.30;99.90;;;;;;5094466;28;20539;-68
2022/11/13 08:45:45;;;;;;;25.10;17.93;;;12.30;99.90;;;;;;5094616;28;20449;-68
2022/11/13 08:48:12;;;;;;;23.00;15.73;;;12.30;99.90;;;;;;5094310;28;20504;-67
2022/11/13 08:50:39;;;;;;;22.97;17.20;;;12.30;99.90;;;;;;5094681;28;20544;-67
2022/11/13 08:53:07;;;;;;;27.30;17.83;;;12.30;99.90;;;;;;5094974;28;20457;-66
2022/11/13 08:55:34;;;;;;;25.47;18.37;;;12.30;99.90;;;;;;5094734;28;20559;-66
2022/11/13 08:58:02;;;;;;;24.77;18.30;;;12.30;99.90;;;;;;5094709;28;20461;-67
2022/11/13 09:00:30;;;;;;;21.50;16.23;;;12.30;99.90;;;;;;5094733;28;20554;-65
2022/11/13 09:03:00;;;;;;;22.90;16.67;;;12.30;99.90;;;;;;5094308;28;20917;-67
2022/11/13 09:05:27;;;;;;;26.60;18.27;;;12.30;99.90;;;;;;5094304;28;20905;-65
2022/11/13 09:07:57;;;;;;;23.97;15.53;;;12.30;99.90;;;;;;5094600;28;20495;-67
2022/11/13 09:10:25;;;;;;;22.50;16.70;;;12.30;99.90;;;;;;5094413;28;20485;-68
2022/11/13 09:12:56;;;;;;;24.13;17.57;;;12.30;99.90;;;;;;5094428;28;20464;-67
2022/11/13 09:15:23;;;;;;;22.87;16.80;;;12.40;99.90;;;;;;5096262;28;20878;-67
2022/11/13 09:17:50;;;;;;;26.33;17.70;;;12.40;99.90;;;;;;5098096;28;20536;-66
2022/11/13 09:20:19;;;;;;;24.00;17.20;;;12.40;99.90;;;;;;5098167;28;20453;-66
2022/11/13 09:22:45;;;;;;;20.50;15.57;;;12.40;99.90;;;;;;5097888;28;20514;-67
2022/11/13 09:25:12;;;;;;;20.93;16.40;;;12.40;99.90;;;;;;5097572;28;20571;-67
2022/11/13 09:27:39;;;;;;;24.80;17.30;;;12.50;99.90;;;;;;5098152;28;20534;-66
2022/11/13 09:30:08;;;;;;;21.83;17.67;;;12.50;99.90;;;;;;5097772;28;20544;-67
2022/11/13 09:32:35;;;;;;;23.10;17.40;;;12.40;99.90;;;;;;5097686;28;20468;-68
2022/11/13 09:35:02;;;;;;;24.77;18.60;;;12.40;99.90;;;;;;5097979;28;20457;-67
2022/11/13 09:37:31;;;;;;;22.87;18.93;;;12.40;99.90;;;;;;5098045;28;20514;-66
2022/11/13 09:39:58;;;;;;;18.53;16.50;;;12.30;99.90;;;;;;5097627;28;20457;-66
2022/11/13 09:42:28;;;;;;;21.63;17.33;;;12.30;99.90;;;;;;5097317;28;20504;-66
2022/11/13 09:45:00;;;;;;;23.63;15.90;;;12.30;99.90;;;;;;5097938;28;20515;-66
2022/11/13 09:47:30;;;;;;;20.33;15.50;;;12.40;99.90;;;;;;5097798;28;20441;-67
2022/11/13 09:50:02;;;;;;;21.63;15.27;;;12.30;99.90;;;;;;5097626;28;20480;-67
2022/11/13 09:52:34;;;;;;;19.50;14.87;;;12.20;99.90;;;;;;5097858;28;20551;-68
2022/11/13 09:55:03;;;;;;;18.23;14.17;;;12.20;99.90;;;;;;5097617;28;20850;-66
2022/11/13 09:57:41;;;;;;;19.93;15.53;;;12.20;99.90;;;;;;5100762;28;20517;-69
2022/11/13 10:00:12;;;;;;;18.07;14.10;;;12.10;99.90;;;;;;5106283;28;20461;-70
2022/11/13 10:02:53;;;;;;;23.17;14.90;;;12.10;99.90;;;;;;5106270;28;20438;-70
2022/11/13 10:05:27;;;;;;;19.27;15.00;;;12.20;99.90;;;;;;5105699;28;20437;-70
2022/11/13 10:08:03;;;;;;;19.27;14.73;;;12.20;99.90;;;;;;5106768;28;20452;-69
2022/11/13 10:10:47;;;;;;;17.90;14.60;;;12.20;99.90;;;;;;5106296;28;20538;-70
2022/11/13 10:13:18;;;;;;;18.70;15.63;;;12.30;99.90;;;;;;5105353;28;20978;-70
2022/11/13 10:15:49;;;;;;;20.47;16.23;;;12.30;99.90;;;;;;5105400;28;21002;-70
2022/11/13 10:18:19;;;;;;;21.10;14.93;;;12.40;99.90;;;;;;5104676;28;20441;-71
2022/11/13 10:20:49;;;;;;;20.50;15.17;;;12.50;99.90;;;;;;5103641;28;20442;-69
2022/11/13 10:23:22;;;;;;;21.63;15.27;;;12.60;99.90;;;;;;5104282;28;20485;-70
2022/11/13 10:25:50;;;;;;;18.00;14.93;;;12.60;99.90;;;;;;5103237;28;20477;-70
2022/11/13 10:28:22;;;;;;;18.30;15.50;;;12.70;99.90;;;;;;5103847;28;20890;-68
2022/11/13 10:30:49;;;;;;;16.90;14.40;;;12.80;99.90;;;;;;5103905;28;20421;-69
2022/11/13 10:33:19;;;;;;;15.23;13.63;;;12.90;99.90;;;;;;5102319;28;20532;-68
2022/11/13 10:35:54;;;;;;;18.77;13.50;;;12.90;99.90;;;;;;5102510;28;20558;-69
2022/11/13 10:38:28;;;;;;;18.00;14.50;;;12.90;99.90;;;;;;5104488;28;20502;-70
2022/11/13 10:41:07;;;;;;;18.20;15.53;;;12.90;99.90;;;;;;5101163;28;20448;-69
2022/11/13 10:43:34;;;;;;;17.30;15.17;;;12.90;99.90;;;;;;5097517;28;20511;-69
2022/11/13 10:46:03;;;;;;;21.27;15.13;;;13.00;99.90;;;;;;5097333;28;20457;-68
2022/11/13 10:48:32;;;;;;;17.60;14.23;;;13.00;99.90;;;;;;5096733;28;20462;-67
2022/11/13 10:51:01;;;;;;;18.57;15.17;;;12.90;99.90;;;;;;5096859;28;20453;-68
2022/11/13 10:53:39;;;;;;;16.93;14.77;;;12.90;99.90;;;;;;5096666;28;20461;-67
2022/11/13 10:56:20;;;;;;;17.27;14.70;;;12.90;99.90;;;;;;5096494;28;20849;-69
2022/11/13 10:59:00;;;;;;;20.67;15.07;;;13.00;99.90;;;;;;5096340;28;20453;-68
2022/11/13 11:01:27;;;;;;;14.77;13.17;;;13.10;99.90;;;;;;5096560;28;20522;-69
2022/11/13 11:03:54;;;;;;;17.73;14.80;;;13.10;99.90;;;;;;5096476;28;20485;-68
2022/11/13 11:06:32;;;;;;;17.37;13.27;;;13.20;99.90;;;;;;5096208;28;20846;-67
2022/11/13 11:09:08;;;;;;;16.30;13.80;;;13.20;99.90;;;;;;5096707;28;20502;-67
2022/11/13 11:14:26;;;;;;;16.07;13.33;;;13.10;99.90;;;;;;5098406;28;20962;-69
2022/11/13 11:16:54;;;;;;;14.57;13.10;;;13.20;99.90;;;;;;5097757;28;20462;-67
2022/11/13 11:19:25;;;;;;;13.97;12.57;;;13.20;99.90;;;;;;5096895;28;20532;-68
2022/11/13 11:22:01;;;;;;;16.30;12.80;;;13.10;99.90;;;;;;5096640;28;20442;-68
2022/11/13 11:24:34;;;;;;;16.07;13.00;;;12.90;99.90;;;;;;5096334;28;20438;-67
2022/11/13 11:27:06;;;;;;;17.13;13.47;;;12.90;99.90;;;;;;5095842;28;20591;-68
2022/11/13 11:29:38;;;;;;;17.10;12.70;;;12.80;99.90;;;;;;5095747;28;20525;-69
2022/11/13 11:32:11;;;;;;;16.03;12.23;;;12.80;99.90;;;;;;5096051;28;20512;-68
2022/11/13 11:34:43;;;;;;;17.90;16.00;;;12.80;99.90;;;;;;5095687;28;20838;-68
2022/11/13 11:37:14;;;;;;;14.73;12.73;;;12.90;99.90;;;;;;5095060;28;20510;-67
2022/11/13 11:39:47;;;;;;;16.93;13.17;;;13.00;99.90;;;;;;5094856;28;20464;-68
2022/11/13 11:42:22;;;;;;;13.83;12.13;;;13.00;99.90;;;;;;5096066;28;20537;-68
2022/11/13 11:45:03;;;;;;;18.63;12.93;;;13.10;99.90;;;;;;5095771;28;20445;-67
2022/11/13 11:47:32;;;;;;;15.50;12.40;;;13.10;99.90;;;;;;5095814;28;20816;-67
2022/11/13 11:50:00;;;;;;;13.87;12.23;;;13.10;99.90;;;;;;5095447;28;20458;-69
2022/11/13 11:52:44;;;;;;;16.90;14.43;;;13.20;99.90;;;;;;5095095;28;20453;-69
2022/11/13 11:55:29;;;;;;;17.10;12.57;;;13.20;99.90;;;;;;5095277;28;20510;-68
2022/11/13 11:58:00;;;;;;;13.03;10.67;;;13.30;99.90;;;;;;5095467;28;20556;-70
2022/11/13 12:00:31;;;;;;;15.87;11.90;;;13.50;99.90;;;;;;5095486;28;20926;-68
2022/11/13 12:03:29;;;;;;;14.20;12.20;;;13.70;99.90;;;;;;5095334;28;20520;-68
2022/11/13 12:06:07;;;;;;;14.57;12.27;;;14.00;99.90;;;;;;5094779;28;20514;-69
2022/11/13 12:08:43;;;;;;;13.03;11.43;;;14.20;99.90;;;;;;5095229;28;20524;-67
2022/11/13 12:11:21;;;;;;;13.67;12.13;;;14.50;99.90;;;;;;5095480;28;20437;-69
2022/11/13 12:13:56;;;;;;;19.73;16.47;;;14.80;99.90;;;;;;5094928;28;20985;-68
2022/11/13 12:16:30;;;;;;;15.40;11.10;;;15.60;99.90;;;;;;5095338;28;20859;-68
2022/11/13 12:19:02;;;;;;;11.33;10.00;;;16.10;99.90;;;;;;5095808;28;20525;-67
2022/11/13 12:21:42;;;;;;;13.60;10.03;;;16.80;99.90;;;;;;5094962;28;20917;-67
2022/11/13 12:24:28;;;;;;;15.77;12.53;;;17.50;99.90;;;;;;5095225;28;20515;-68
2022/11/13 12:27:09;;;;;;;12.23;10.50;;;18.00;99.90;;;;;;5095038;28;20970;-68
2022/11/13 12:29:53;;;;;;;12.20;9.97;;;19.10;99.90;;;;;;5095570;28;20461;-68
2022/11/13 12:32:32;;;;;;;11.37;10.27;;;20.20;99.90;;;;;;5096003;28;20742;-68
2022/11/13 12:35:05;;;;;;;14.20;10.13;;;21.30;99.90;;;;;;5095356;28;20532;-68
2022/11/13 12:37:39;;;;;;;13.13;10.30;;;22.20;99.90;;;;;;5095351;28;20497;-68
2022/11/13 12:40:12;;;;;;;10.87;9.77;;;23.00;99.90;;;;;;5095422;28;20479;-68
2022/11/13 12:42:48;;;;;;;10.53;9.43;;;23.30;99.90;;;;;;5095448;28;20442;-68